Hovedside
METAR-TAF:

METAR-TAF

Lufthavner :

Clark internasjonale lufthavn

Angeles, Filippinene

breddegrad: 15-11N, lengdegrad: 120-33E, høyde over havet: 148 m

Gjeldene værobservasjon

Denne rapporten ble laget for 42 minutter siden, klokken 03:00 UTC
Vind 4 kt fra Sør-sørøst
Temperatur 32°C
Luftfuktighet 71%
Trykk 1010 hPa
Sikt 10 km eller mer
Få skyer i en høyde av 2000 ft

METAR: RPLC 220300Z 16004KT 9999 FEW020 32/26 Q1010 NOSIG RMK A2983

Tid: 11:42 (03:42 UTC)

Varsel

Denne rapporten ble laget for 4 timer og 42 minutter siden, klokken 23:00 UTC
Varsel gyldig fra 22. klokken 00 UTC til 23. klokken 06 UTC
Vind 6 kt fra Sør-sørøst
Sikt 10 km eller mer
Spredte skyer i en høyde av 2000 ft
Brutte skyer i en høyde av 30000 ft
Midlertidig
fra 22. klokken 00 UTC til 22. klokken 06 UTC
Vind 6 kt fra Nordøst
Spredte skyer i en høyde av 2000 ft
Brutte skyer i en høyde av 10000 ft

TAF: RPLC 212300Z 2200/2306 16006KT 9999 SCT020 BKN300 TX33/2206Z TN25/2221Z TEMPO 2200/2206 04006KT SCT020 BKN100

Værobservasjoner og værvarsel for over 4000 flyplasser (METAR- og TAF-rapporter).

Tilgjengelige stasjoner er representert av de røde og gule prikkene på kartet.

Hold musepekeren over prikken for å se navnet på stasjonen.

Klikk så for å se værobservasjoner og -varsler.

For å forandre kartet kan du klikke på den grønne knappen med svart kryss for å zoome inn, på den grønne knappen med strek for å zoome ut, eller på de grønne pilene for å se tilstøtende kart.


METAR-TAF: